Frizington, United Kingdom
Current Conditions -  °F | °C
As of 7:50 PM on Saturday 20 Dec 2014 (Local Time) from EGOM Reporting Station
Broken Clouds Broken Clouds  
Wind Chill: 31°   Ceiling: 2200
Heat Index: 39°   Visibility: 6mi
Dew Point: 39°   Wind: 15mph
Humidity: 100%   Direction: 240°WSW
Pressure: 30.21"   Gusts: NA
Location:  54.54°N, 3.49°W
Report Text: EGOM 201950Z AUTO 24013KT 9999 SCT002/// SCT016/// BKN022/// 04/04 Q1023
Loading
Personal Weather Stations






























Interactive Weather Map New forecast layout! Learn more

10-Day Weather Forecast

Advertisements
Track Severe Weather on mobile